sensor_id;sensor_type;location;lat;lon;timestamp;pressure;altitude;pressure_sealevel;temperature;humidity
25759;BME280;13604;52.496;13.456;2024-03-02T00:02:11;100129.22;;;6.54;100.00
25759;BME280;13604;52.496;13.456;2024-03-02T00:04:37;100114.38;;;6.50;100.00
25759;BME280;13604;52.496;13.456;2024-03-02T00:07:03;100123.31;;;6.56;100.00
25759;BME280;13604;52.496;13.456;2024-03-02T00:09:29;100139.31;;;6.66;100.00
25759;BME280;13604;52.496;13.456;2024-03-02T00:11:54;100120.94;;;6.61;100.00
25759;BME280;13604;52.496;13.456;2024-03-02T00:14:19;100131.19;;;6.76;100.00
25759;BME280;13604;52.496;13.456;2024-03-02T00:16:45;100109.16;;;6.66;100.00
25759;BME280;13604;52.496;13.456;2024-03-02T00:19:11;100125.13;;;6.75;100.00
25759;BME280;13604;52.496;13.456;2024-03-02T00:21:36;100053.19;;;6.34;100.00
25759;BME280;13604;52.496;13.456;2024-03-02T00:24:08;100116.34;;;6.72;100.00
25759;BME280;13604;52.496;13.456;2024-03-02T00:26:44;100117.53;;;6.78;100.00
25759;BME280;13604;52.496;13.456;2024-03-02T00:29:10;100110.91;;;6.67;100.00
25759;BME280;13604;52.496;13.456;2024-03-02T00:31:39;100122.69;;;6.78;100.00
25759;BME280;13604;52.496;13.456;2024-03-02T00:34:05;100115.75;;;6.77;100.00
25759;BME280;13604;52.496;13.456;2024-03-02T00:36:31;100108.88;;;6.78;100.00
25759;BME280;13604;52.496;13.456;2024-03-02T00:38:56;100098.53;;;6.78;100.00
25759;BME280;13604;52.496;13.456;2024-03-02T00:41:27;100107.09;;;6.77;100.00
25759;BME280;13604;52.496;13.456;2024-03-02T00:44:13;100119.13;;;6.93;100.00
25759;BME280;13604;52.496;13.456;2024-03-02T00:46:41;100112.66;;;6.85;100.00
25759;BME280;13604;52.496;13.456;2024-03-02T00:49:22;100122.81;;;6.98;100.00
25759;BME280;13604;52.496;13.456;2024-03-02T00:51:50;100121.84;;;6.96;100.00
25759;BME280;13604;52.496;13.456;2024-03-02T00:54:25;100116.69;;;6.96;100.00
25759;BME280;13604;52.496;13.456;2024-03-02T00:56:52;100115.78;;;6.95;100.00
25759;BME280;13604;52.496;13.456;2024-03-02T00:59:21;100123.78;;;7.00;100.00
25759;BME280;13604;52.496;13.456;2024-03-02T01:01:47;100123.94;;;7.03;100.00
25759;BME280;13604;52.496;13.456;2024-03-02T01:04:13;100118.91;;;7.06;100.00
25759;BME280;13604;52.496;13.456;2024-03-02T01:06:39;100114.59;;;7.07;100.00
25759;BME280;13604;52.496;13.456;2024-03-02T01:09:04;100108.47;;;7.05;100.00
25759;BME280;13604;52.496;13.456;2024-03-02T01:11:30;100120.81;;;7.10;100.00
25759;BME280;13604;52.496;13.456;2024-03-02T01:13:58;100107.88;;;7.10;100.00
25759;BME280;13604;52.496;13.456;2024-03-02T01:16:23;100103.81;;;7.15;100.00
25759;BME280;13604;52.496;13.456;2024-03-02T01:18:48;100103.88;;;7.17;100.00
25759;BME280;13604;52.496;13.456;2024-03-02T01:21:14;100109.56;;;7.10;100.00
25759;BME280;13604;52.496;13.456;2024-03-02T01:23:40;100107.78;;;7.09;100.00
25759;BME280;13604;52.496;13.456;2024-03-02T01:26:05;100109.81;;;7.14;100.00
25759;BME280;13604;52.496;13.456;2024-03-02T01:28:31;100086.28;;;7.10;100.00
25759;BME280;13604;52.496;13.456;2024-03-02T01:30:56;100101.34;;;7.18;100.00
25759;BME280;13604;52.496;13.456;2024-03-02T01:33:21;100108.31;;;7.19;100.00
25759;BME280;13604;52.496;13.456;2024-03-02T01:35:47;100083.53;;;7.07;100.00
25759;BME280;13604;52.496;13.456;2024-03-02T01:38:13;100095.75;;;7.09;100.00
25759;BME280;13604;52.496;13.456;2024-03-02T01:40:38;100105.50;;;7.15;100.00
25759;BME280;13604;52.496;13.456;2024-03-02T01:43:04;100075.47;;;7.00;100.00
25759;BME280;13604;52.496;13.456;2024-03-02T01:45:30;100077.78;;;7.12;100.00
25759;BME280;13604;52.496;13.456;2024-03-02T01:47:56;100088.47;;;7.20;100.00
25759;BME280;13604;52.496;13.456;2024-03-02T01:50:39;100085.97;;;7.22;100.00
25759;BME280;13604;52.496;13.456;2024-03-02T01:53:04;100074.50;;;7.16;100.00
25759;BME280;13604;52.496;13.456;2024-03-02T01:55:30;100055.72;;;7.03;100.00
25759;BME280;13604;52.496;13.456;2024-03-02T01:57:55;100046.88;;;6.97;100.00
25759;BME280;13604;52.496;13.456;2024-03-02T02:00:21;100046.09;;;7.00;100.00
25759;BME280;13604;52.496;13.456;2024-03-02T02:02:48;100066.44;;;7.10;100.00
25759;BME280;13604;52.496;13.456;2024-03-02T02:05:13;100069.94;;;7.11;100.00
25759;BME280;13604;52.496;13.456;2024-03-02T02:07:40;100067.91;;;7.05;100.00
25759;BME280;13604;52.496;13.456;2024-03-02T02:10:06;100037.47;;;6.99;100.00
25759;BME280;13604;52.496;13.456;2024-03-02T02:12:31;100034.72;;;6.96;100.00
25759;BME280;13604;52.496;13.456;2024-03-02T02:14:57;100051.66;;;7.08;100.00
25759;BME280;13604;52.496;13.456;2024-03-02T02:17:22;100045.38;;;7.03;100.00
25759;BME280;13604;52.496;13.456;2024-03-02T02:19:47;100041.00;;;7.02;100.00
25759;BME280;13604;52.496;13.456;2024-03-02T02:22:13;100064.69;;;7.09;100.00
25759;BME280;13604;52.496;13.456;2024-03-02T02:24:41;100026.66;;;6.90;100.00
25759;BME280;13604;52.496;13.456;2024-03-02T02:27:07;100048.91;;;7.05;100.00
25759;BME280;13604;52.496;13.456;2024-03-02T02:29:33;100052.75;;;7.13;100.00
25759;BME280;13604;52.496;13.456;2024-03-02T02:31:58;100042.94;;;7.06;100.00
25759;BME280;13604;52.496;13.456;2024-03-02T02:34:23;100043.75;;;7.05;100.00
25759;BME280;13604;52.496;13.456;2024-03-02T02:36:49;100041.81;;;7.00;100.00
25759;BME280;13604;52.496;13.456;2024-03-02T02:39:17;100044.19;;;6.96;100.00
25759;BME280;13604;52.496;13.456;2024-03-02T02:41:44;100065.19;;;7.02;100.00
25759;BME280;13604;52.496;13.456;2024-03-02T02:44:10;100047.66;;;6.96;100.00
25759;BME280;13604;52.496;13.456;2024-03-02T02:46:38;100062.91;;;7.08;100.00
25759;BME280;13604;52.496;13.456;2024-03-02T02:49:03;100070.59;;;7.07;100.00
25759;BME280;13604;52.496;13.456;2024-03-02T02:51:28;100041.16;;;6.87;100.00
25759;BME280;13604;52.496;13.456;2024-03-02T02:53:54;100078.34;;;7.07;100.00
25759;BME280;13604;52.496;13.456;2024-03-02T02:56:19;100067.91;;;7.05;100.00
25759;BME280;13604;52.496;13.456;2024-03-02T02:58:44;100060.22;;;7.07;100.00
25759;BME280;13604;52.496;13.456;2024-03-02T03:01:10;100069.09;;;7.12;100.00
25759;BME280;13604;52.496;13.456;2024-03-02T03:03:35;100068.59;;;7.01;100.00
25759;BME280;13604;52.496;13.456;2024-03-02T03:06:01;100080.28;;;7.11;100.00
25759;BME280;13604;52.496;13.456;2024-03-02T03:08:27;100067.03;;;7.05;100.00
25759;BME280;13604;52.496;13.456;2024-03-02T03:10:52;100067.91;;;7.05;100.00
25759;BME280;13604;52.496;13.456;2024-03-02T03:13:17;100068.16;;;7.10;100.00
25759;BME280;13604;52.496;13.456;2024-03-02T03:15:43;100047.88;;;7.01;100.00
25759;BME280;13604;52.496;13.456;2024-03-02T03:18:08;100053.16;;;7.03;100.00
25759;BME280;13604;52.496;13.456;2024-03-02T03:20:35;100049.06;;;6.90;100.00
25759;BME280;13604;52.496;13.456;2024-03-02T03:23:00;100068.84;;;7.06;100.00
25759;BME280;13604;52.496;13.456;2024-03-02T03:25:26;100042.47;;;6.96;100.00
25759;BME280;13604;52.496;13.456;2024-03-02T03:27:51;100057.00;;;7.11;100.00
25759;BME280;13604;52.496;13.456;2024-03-02T03:30:19;100059.94;;;7.18;100.00
25759;BME280;13604;52.496;13.456;2024-03-02T03:32:44;100057.22;;;7.15;100.00
25759;BME280;13604;52.496;13.456;2024-03-02T03:35:10;100047.50;;;7.11;100.00
25759;BME280;13604;52.496;13.456;2024-03-02T03:37:37;100060.38;;;7.28;100.00
25759;BME280;13604;52.496;13.456;2024-03-02T03:40:03;100063.66;;;7.24;100.00
25759;BME280;13604;52.496;13.456;2024-03-02T03:42:32;100049.28;;;7.12;100.00
25759;BME280;13604;52.496;13.456;2024-03-02T03:44:57;100061.84;;;7.23;100.00
25759;BME280;13604;52.496;13.456;2024-03-02T03:47:22;100061.31;;;7.30;100.00
25759;BME280;13604;52.496;13.456;2024-03-02T03:49:47;100046.91;;;7.17;100.00
25759;BME280;13604;52.496;13.456;2024-03-02T03:52:13;100052.38;;;7.23;100.00
25759;BME280;13604;52.496;13.456;2024-03-02T03:54:38;100066.06;;;7.39;100.00
25759;BME280;13604;52.496;13.456;2024-03-02T03:57:04;100070.34;;;7.38;100.00
25759;BME280;13604;52.496;13.456;2024-03-02T03:59:29;100073.69;;;7.35;100.00
25759;BME280;13604;52.496;13.456;2024-03-02T04:01:55;100052.22;;;7.20;100.00
25759;BME280;13604;52.496;13.456;2024-03-02T04:04:20;100083.84;;;7.31;100.00
25759;BME280;13604;52.496;13.456;2024-03-02T04:06:45;100071.59;;;7.28;100.00
25759;BME280;13604;52.496;13.456;2024-03-02T04:09:11;100063.44;;;7.19;100.00
25759;BME280;13604;52.496;13.456;2024-03-02T04:11:36;100045.22;;;7.17;100.00
25759;BME280;13604;52.496;13.456;2024-03-02T04:14:01;100078.88;;;7.35;100.00
25759;BME280;13604;52.496;13.456;2024-03-02T04:16:27;100050.69;;;7.24;100.00
25759;BME280;13604;52.496;13.456;2024-03-02T04:18:52;100070.19;;;7.35;100.00
25759;BME280;13604;52.496;13.456;2024-03-02T04:21:17;100049.50;;;7.17;100.00
25759;BME280;13604;52.496;13.456;2024-03-02T04:23:43;100077.09;;;7.34;100.00
25759;BME280;13604;52.496;13.456;2024-03-02T04:26:08;100062.16;;;7.29;100.00
25759;BME280;13604;52.496;13.456;2024-03-02T04:28:33;100069.03;;;7.28;100.00
25759;BME280;13604;52.496;13.456;2024-03-02T04:30:58;100074.34;;;7.31;100.00
25759;BME280;13604;52.496;13.456;2024-03-02T04:33:24;100047.28;;;7.07;100.00
25759;BME280;13604;52.496;13.456;2024-03-02T04:35:49;100065.03;;;7.17;100.00
25759;BME280;13604;52.496;13.456;2024-03-02T04:38:14;100052.75;;;7.13;100.00
25759;BME280;13604;52.496;13.456;2024-03-02T04:40:40;100051.28;;;7.18;100.00
25759;BME280;13604;52.496;13.456;2024-03-02T04:43:05;100067.34;;;7.29;100.00
25759;BME280;13604;52.496;13.456;2024-03-02T04:45:30;100068.00;;;7.25;100.00
25759;BME280;13604;52.496;13.456;2024-03-02T04:47:56;100083.84;;;7.31;100.00
25759;BME280;13604;52.496;13.456;2024-03-02T04:50:21;100070.44;;;7.22;100.00
25759;BME280;13604;52.496;13.456;2024-03-02T04:52:46;100094.41;;;7.35;100.00
25759;BME280;13604;52.496;13.456;2024-03-02T04:55:11;100102.19;;;7.35;100.00
25759;BME280;13604;52.496;13.456;2024-03-02T04:57:52;100089.16;;;7.34;100.00
25759;BME280;13604;52.496;13.456;2024-03-02T05:00:20;100102.41;;;7.40;100.00
25759;BME280;13604;52.496;13.456;2024-03-02T05:02:45;100077.78;;;7.30;100.00
25759;BME280;13604;52.496;13.456;2024-03-02T05:05:10;100106.19;;;7.47;100.00
25759;BME280;13604;52.496;13.456;2024-03-02T05:07:35;100093.06;;;7.44;100.00
25759;BME280;13604;52.496;13.456;2024-03-02T05:10:01;100098.34;;;7.45;100.00
25759;BME280;13604;52.496;13.456;2024-03-02T05:12:26;100108.84;;;7.48;100.00
25759;BME280;13604;52.496;13.456;2024-03-02T05:15:11;100105.28;;;7.46;100.00
25759;BME280;13604;52.496;13.456;2024-03-02T05:17:37;100124.50;;;7.51;100.00
25759;BME280;13604;52.496;13.456;2024-03-02T05:20:06;100121.91;;;7.51;100.00
25759;BME280;13604;52.496;13.456;2024-03-02T05:22:33;100125.94;;;7.45;100.00
25759;BME280;13604;52.496;13.456;2024-03-02T05:24:59;100108.19;;;7.34;100.00
25759;BME280;13604;52.496;13.456;2024-03-02T05:27:25;100133.44;;;7.39;100.00
25759;BME280;13604;52.496;13.456;2024-03-02T05:29:50;100122.69;;;7.31;100.00
25759;BME280;13604;52.496;13.456;2024-03-02T05:32:15;100123.63;;;7.33;100.00
25759;BME280;13604;52.496;13.456;2024-03-02T05:34:40;100103.00;;;7.16;100.00
25759;BME280;13604;52.496;13.456;2024-03-02T05:37:06;100143.72;;;7.37;100.00
25759;BME280;13604;52.496;13.456;2024-03-02T05:39:31;100127.06;;;7.32;100.00
25759;BME280;13604;52.496;13.456;2024-03-02T05:41:56;100134.47;;;7.42;100.00
25759;BME280;13604;52.496;13.456;2024-03-02T05:44:22;100119.22;;;7.30;100.00
25759;BME280;13604;52.496;13.456;2024-03-02T05:46:47;100145.41;;;7.36;100.00
25759;BME280;13604;52.496;13.456;2024-03-02T05:49:12;100195.31;;;7.68;100.00
25759;BME280;13604;52.496;13.456;2024-03-02T05:51:38;100150.88;;;7.43;100.00
25759;BME280;13604;52.496;13.456;2024-03-02T05:54:03;100152.59;;;7.42;100.00
25759;BME280;13604;52.496;13.456;2024-03-02T05:56:28;100158.41;;;7.38;100.00
25759;BME280;13604;52.496;13.456;2024-03-02T05:58:54;100136.28;;;7.27;100.00
25759;BME280;13604;52.496;13.456;2024-03-02T06:01:47;100154.94;;;7.37;100.00
25759;BME280;13604;52.496;13.456;2024-03-02T06:04:13;100133.78;;;7.28;100.00
25759;BME280;13604;52.496;13.456;2024-03-02T06:06:42;100141.53;;;7.28;100.00
25759;BME280;13604;52.496;13.456;2024-03-02T06:09:07;100165.16;;;7.34;100.00
25759;BME280;13604;52.496;13.456;2024-03-02T06:11:41;100162.25;;;7.28;100.00
25759;BME280;13604;52.496;13.456;2024-03-02T06:14:07;100161.06;;;7.22;100.00
25759;BME280;13604;52.496;13.456;2024-03-02T06:16:33;100168.03;;;7.23;100.00
25759;BME280;13604;52.496;13.456;2024-03-02T06:18:58;100138.53;;;7.19;100.00
25759;BME280;13604;52.496;13.456;2024-03-02T06:21:24;100158.41;;;7.38;100.00
25759;BME280;13604;52.496;13.456;2024-03-02T06:23:49;100153.38;;;7.41;100.00
25759;BME280;13604;52.496;13.456;2024-03-02T06:26:14;100137.91;;;7.25;100.00
25759;BME280;13604;52.496;13.456;2024-03-02T06:28:40;100160.13;;;7.37;100.00
25759;BME280;13604;52.496;13.456;2024-03-02T06:31:05;100152.59;;;7.42;100.00
25759;BME280;13604;52.496;13.456;2024-03-02T06:33:30;100163.38;;;7.51;100.00
25759;BME280;13604;52.496;13.456;2024-03-02T06:35:56;100151.25;;;7.50;100.00
25759;BME280;13604;52.496;13.456;2024-03-02T06:38:21;100162.03;;;7.60;100.00
25759;BME280;13604;52.496;13.456;2024-03-02T06:40:46;100162.56;;;7.52;100.00
25759;BME280;13604;52.496;13.456;2024-03-02T06:43:12;100133.84;;;7.30;100.00
25759;BME280;13604;52.496;13.456;2024-03-02T06:45:38;100167.44;;;7.46;100.00
25759;BME280;13604;52.496;13.456;2024-03-02T06:48:03;100167.75;;;7.34;100.00
25759;BME280;13604;52.496;13.456;2024-03-02T06:50:28;100170.19;;;7.49;100.00
25759;BME280;13604;52.496;13.456;2024-03-02T06:52:54;100176.47;;;7.54;100.00
25759;BME280;13604;52.496;13.456;2024-03-02T06:55:21;100184.09;;;7.51;100.00
25759;BME280;13604;52.496;13.456;2024-03-02T06:57:46;100182.03;;;7.44;100.00
25759;BME280;13604;52.496;13.456;2024-03-02T07:00:12;100185.34;;;7.42;100.00
25759;BME280;13604;52.496;13.456;2024-03-02T07:02:37;100181.88;;;7.41;100.00
25759;BME280;13604;52.496;13.456;2024-03-02T07:05:03;100179.81;;;7.34;100.00
25759;BME280;13604;52.496;13.456;2024-03-02T07:07:28;100192.25;;;7.41;100.00
25759;BME280;13604;52.496;13.456;2024-03-02T07:09:54;100176.13;;;7.29;100.00
25759;BME280;13604;52.496;13.456;2024-03-02T07:12:19;100187.91;;;7.40;100.00
25759;BME280;13604;52.496;13.456;2024-03-02T07:14:45;100166.72;;;7.31;100.00
25759;BME280;13604;52.496;13.456;2024-03-02T07:17:22;100165.38;;;7.39;100.00
25759;BME280;13604;52.496;13.456;2024-03-02T07:19:47;100180.41;;;7.46;100.00
25759;BME280;13604;52.496;13.456;2024-03-02T07:22:13;100190.03;;;7.49;100.00
25759;BME280;13604;52.496;13.456;2024-03-02T07:24:41;100172.38;;;7.40;100.00
25759;BME280;13604;52.496;13.456;2024-03-02T07:27:11;100201.13;;;7.46;100.00
25759;BME280;13604;52.496;13.456;2024-03-02T07:29:37;100201.28;;;7.49;100.00
25759;BME280;13604;52.496;13.456;2024-03-02T07:32:02;100195.31;;;7.50;100.00
25759;BME280;13604;52.496;13.456;2024-03-02T07:34:28;100212.13;;;7.59;100.00
25759;BME280;13604;52.496;13.456;2024-03-02T07:36:53;100183.59;;;7.41;100.00
25759;BME280;13604;52.496;13.456;2024-03-02T07:39:18;100185.44;;;7.43;100.00
25759;BME280;13604;52.496;13.456;2024-03-02T07:41:45;100224.47;;;7.64;100.00
25759;BME280;13604;52.496;13.456;2024-03-02T07:44:10;100233.19;;;7.66;100.00
25759;BME280;13604;52.496;13.456;2024-03-02T07:46:39;100239.06;;;7.80;100.00
25759;BME280;13604;52.496;13.456;2024-03-02T07:49:05;100242.31;;;7.76;100.00
25759;BME280;13604;52.496;13.456;2024-03-02T07:51:30;100226.03;;;7.61;100.00
25759;BME280;13604;52.496;13.456;2024-03-02T07:53:55;100222.47;;;7.59;100.00
25759;BME280;13604;52.496;13.456;2024-03-02T07:56:21;100242.69;;;7.66;100.00
25759;BME280;13604;52.496;13.456;2024-03-02T07:58:48;100246.38;;;7.71;100.00
25759;BME280;13604;52.496;13.456;2024-03-02T08:01:14;100249.66;;;7.85;100.00
25759;BME280;13604;52.496;13.456;2024-03-02T08:03:39;100250.00;;;7.92;100.00
25759;BME280;13604;52.496;13.456;2024-03-02T08:06:05;100257.13;;;7.97;100.00
25759;BME280;13604;52.496;13.456;2024-03-02T08:08:30;100260.19;;;7.88;100.00
25759;BME280;13604;52.496;13.456;2024-03-02T08:10:55;100227.50;;;7.55;100.00
25759;BME280;13604;52.496;13.456;2024-03-02T08:13:20;100259.72;;;7.79;100.00
25759;BME280;13604;52.496;13.456;2024-03-02T08:15:46;100248.47;;;7.78;100.00
25759;BME280;13604;52.496;13.456;2024-03-02T08:18:11;100271.72;;;7.95;100.00
25759;BME280;13604;52.496;13.456;2024-03-02T08:20:37;100261.28;;;7.93;100.00
25759;BME280;13604;52.496;13.456;2024-03-02T08:23:02;100272.91;;;8.01;100.00
25759;BME280;13604;52.496;13.456;2024-03-02T08:25:28;100267.81;;;8.03;100.00
25759;BME280;13604;52.496;13.456;2024-03-02T08:27:53;100275.19;;;8.13;100.00
25759;BME280;13604;52.496;13.456;2024-03-02T08:30:18;100284.97;;;8.01;100.00
25759;BME280;13604;52.496;13.456;2024-03-02T08:32:44;100276.25;;;7.99;100.00
25759;BME280;13604;52.496;13.456;2024-03-02T08:35:10;100281.13;;;8.10;100.00
25759;BME280;13604;52.496;13.456;2024-03-02T08:37:38;100268.03;;;7.89;100.00
25759;BME280;13604;52.496;13.456;2024-03-02T08:40:05;100249.88;;;7.89;100.00
25759;BME280;13604;52.496;13.456;2024-03-02T08:42:32;100275.13;;;8.11;100.00
25759;BME280;13604;52.496;13.456;2024-03-02T08:44:57;100254.63;;;7.98;100.00
25759;BME280;13604;52.496;13.456;2024-03-02T08:47:23;100256.75;;;8.07;100.00
25759;BME280;13604;52.496;13.456;2024-03-02T08:49:48;100277.00;;;8.14;100.00
25759;BME280;13604;52.496;13.456;2024-03-02T08:52:13;100250.47;;;8.02;100.00
25759;BME280;13604;52.496;13.456;2024-03-02T08:54:39;100274.88;;;8.25;100.00
25759;BME280;13604;52.496;13.456;2024-03-02T08:57:05;100273.47;;;8.32;100.00
25759;BME280;13604;52.496;13.456;2024-03-02T08:59:30;100281.38;;;8.35;100.00
25759;BME280;13604;52.496;13.456;2024-03-02T09:01:57;100278.94;;;8.38;100.00
25759;BME280;13604;52.496;13.456;2024-03-02T09:04:22;100275.03;;;8.28;100.00
25759;BME280;13604;52.496;13.456;2024-03-02T09:06:48;100282.44;;;8.20;100.00
25759;BME280;13604;52.496;13.456;2024-03-02T09:09:22;100297.31;;;8.42;100.00
25759;BME280;13604;52.496;13.456;2024-03-02T09:11:47;100300.66;;;8.58;100.00
25759;BME280;13604;52.496;13.456;2024-03-02T09:14:13;100298.06;;;8.58;100.00
25759;BME280;13604;52.496;13.456;2024-03-02T09:16:40;100284.34;;;8.42;100.00
25759;BME280;13604;52.496;13.456;2024-03-02T09:19:05;100304.06;;;8.57;100.00
25759;BME280;13604;52.496;13.456;2024-03-02T09:21:30;100290.97;;;8.54;100.00
25759;BME280;13604;52.496;13.456;2024-03-02T09:23:55;100306.88;;;8.61;100.00
25759;BME280;13604;52.496;13.456;2024-03-02T09:26:21;100305.59;;;8.71;100.00
25759;BME280;13604;52.496;13.456;2024-03-02T09:28:47;100284.19;;;8.57;100.00
25759;BME280;13604;52.496;13.456;2024-03-02T09:31:12;100303.50;;;8.82;100.00
25759;BME280;13604;52.496;13.456;2024-03-02T09:33:38;100306.47;;;8.91;100.00
25759;BME280;13604;52.496;13.456;2024-03-02T09:36:04;100290.81;;;8.90;100.00
25759;BME280;13604;52.496;13.456;2024-03-02T09:38:32;100304.56;;;9.07;100.00
25759;BME280;13604;52.496;13.456;2024-03-02T09:40:58;100271.03;;;9.11;100.00
25759;BME280;13604;52.496;13.456;2024-03-02T09:43:24;100308.00;;;9.46;100.00
25759;BME280;13604;52.496;13.456;2024-03-02T09:45:50;100301.31;;;9.72;100.00
25759;BME280;13604;52.496;13.456;2024-03-02T09:48:16;100304.66;;;9.70;100.00
25759;BME280;13604;52.496;13.456;2024-03-02T09:50:43;100298.25;;;10.04;100.00
25759;BME280;13604;52.496;13.456;2024-03-02T09:53:09;100281.75;;;10.26;100.00
25759;BME280;13604;52.496;13.456;2024-03-02T09:55:35;100297.66;;;10.32;100.00
25759;BME280;13604;52.496;13.456;2024-03-02T09:58:00;100300.78;;;10.46;100.00
25759;BME280;13604;52.496;13.456;2024-03-02T10:00:26;100302.19;;;10.60;100.00
25759;BME280;13604;52.496;13.456;2024-03-02T10:02:51;100297.47;;;10.50;100.00
25759;BME280;13604;52.496;13.456;2024-03-02T10:05:26;100312.38;;;10.54;100.00
25759;BME280;13604;52.496;13.456;2024-03-02T10:08:02;100302.19;;;10.38;100.00
25759;BME280;13604;52.496;13.456;2024-03-02T10:10:40;100312.34;;;10.31;100.00
25759;BME280;13604;52.496;13.456;2024-03-02T10:13:07;100307.38;;;10.83;100.00
25759;BME280;13604;52.496;13.456;2024-03-02T10:15:33;100316.44;;;11.17;100.00
25759;BME280;13604;52.496;13.456;2024-03-02T10:17:59;100287.72;;;11.67;99.87
25759;BME280;13604;52.496;13.456;2024-03-02T10:20:25;100308.81;;;11.73;98.49
25759;BME280;13604;52.496;13.456;2024-03-02T10:22:51;100291.22;;;11.93;96.47
25759;BME280;13604;52.496;13.456;2024-03-02T10:25:32;100303.22;;;12.73;94.48
25759;BME280;13604;52.496;13.456;2024-03-02T10:27:59;100290.06;;;12.39;91.03
25759;BME280;13604;52.496;13.456;2024-03-02T10:30:25;100302.31;;;12.70;88.78
25759;BME280;13604;52.496;13.456;2024-03-02T10:32:55;100273.22;;;12.58;89.59
25759;BME280;13604;52.496;13.456;2024-03-02T10:35:22;100277.09;;;13.03;86.68
25759;BME280;13604;52.496;13.456;2024-03-02T10:37:48;100289.75;;;13.51;86.29
25759;BME280;13604;52.496;13.456;2024-03-02T10:40:14;100288.50;;;13.70;82.93
25759;BME280;13604;52.496;13.456;2024-03-02T10:42:41;100288.56;;;13.08;79.31
25759;BME280;13604;52.496;13.456;2024-03-02T10:45:09;100283.75;;;12.32;82.63
25759;BME280;13604;52.496;13.456;2024-03-02T10:47:36;100289.19;;;12.11;84.10
25759;BME280;13604;52.496;13.456;2024-03-02T10:50:04;100299.13;;;12.23;85.09
25759;BME280;13604;52.496;13.456;2024-03-02T10:52:31;100288.56;;;11.66;87.50
25759;BME280;13604;52.496;13.456;2024-03-02T10:54:56;100300.19;;;11.75;89.66
25759;BME280;13604;52.496;13.456;2024-03-02T10:57:21;100295.72;;;11.71;89.27
25759;BME280;13604;52.496;13.456;2024-03-02T10:59:56;100296.88;;;12.07;88.69
25759;BME280;13604;52.496;13.456;2024-03-02T11:02:30;100294.72;;;12.21;86.96
25759;BME280;13604;52.496;13.456;2024-03-02T11:04:56;100292.66;;;12.39;85.90
25759;BME280;13604;52.496;13.456;2024-03-02T11:07:22;100276.81;;;12.04;85.19
25759;BME280;13604;52.496;13.456;2024-03-02T11:09:54;100297.38;;;11.95;84.28
25759;BME280;13604;52.496;13.456;2024-03-02T11:14:56;100286.34;;;12.04;83.93
25759;BME280;13604;52.496;13.456;2024-03-02T11:17:21;100293.53;;;12.11;83.92
25759;BME280;13604;52.496;13.456;2024-03-02T11:19:47;100269.13;;;12.09;83.42
25759;BME280;13604;52.496;13.456;2024-03-02T11:22:14;100278.75;;;12.69;80.70
25759;BME280;13604;52.496;13.456;2024-03-02T11:24:48;100273.56;;;12.40;80.30
25759;BME280;13604;52.496;13.456;2024-03-02T11:27:14;100277.72;;;12.64;81.21
25759;BME280;13604;52.496;13.456;2024-03-02T11:32:13;100283.78;;;13.25;77.45
25759;BME280;13604;52.496;13.456;2024-03-02T11:34:43;100290.88;;;13.61;74.70
25759;BME280;13604;52.496;13.456;2024-03-02T11:37:10;100296.31;;;13.69;72.59
25759;BME280;13604;52.496;13.456;2024-03-02T11:39:37;100278.97;;;14.10;71.88
25759;BME280;13604;52.496;13.456;2024-03-02T11:42:06;100297.19;;;14.44;69.31
25759;BME280;13604;52.496;13.456;2024-03-02T11:44:33;100296.25;;;14.40;68.82
25759;BME280;13604;52.496;13.456;2024-03-02T11:46:59;100258.00;;;14.09;69.27
25759;BME280;13604;52.496;13.456;2024-03-02T11:49:42;100290.56;;;14.20;69.14
25759;BME280;13604;52.496;13.456;2024-03-02T11:52:09;100273.88;;;14.56;67.67
25759;BME280;13604;52.496;13.456;2024-03-02T11:54:37;100300.25;;;14.24;66.97
25759;BME280;13604;52.496;13.456;2024-03-02T11:57:11;100287.31;;;14.70;66.04
25759;BME280;13604;52.496;13.456;2024-03-02T11:59:36;100286.63;;;15.73;64.26
25759;BME280;13604;52.496;13.456;2024-03-02T12:02:02;100283.31;;;16.40;59.22
25759;BME280;13604;52.496;13.456;2024-03-02T12:04:28;100264.00;;;17.07;56.50
25759;BME280;13604;52.496;13.456;2024-03-02T12:06:55;100283.69;;;18.60;54.10
25759;BME280;13604;52.496;13.456;2024-03-02T12:09:21;100284.59;;;18.65;52.28
25759;BME280;13604;52.496;13.456;2024-03-02T12:11:46;100272.47;;;19.04;50.54
25759;BME280;13604;52.496;13.456;2024-03-02T12:14:12;100287.75;;;18.05;51.92
25759;BME280;13604;52.496;13.456;2024-03-02T12:16:44;100264.41;;;18.70;50.82
25759;BME280;13604;52.496;13.456;2024-03-02T12:19:29;100270.53;;;21.08;46.15
25759;BME280;13604;52.496;13.456;2024-03-02T12:30:18;100268.44;;;21.62;nan
25759;BME280;13604;52.496;13.456;2024-03-02T12:32:44;100270.38;;;22.42;nan
25759;BME280;13604;52.496;13.456;2024-03-02T12:57:10;100264.56;;;19.02;nan
25759;BME280;13604;52.496;13.456;2024-03-02T12:59:35;100125.06;;;17.70;nan
25759;BME280;13604;52.496;13.456;2024-03-02T13:02:36;100257.41;;;18.81;45.42
25759;BME280;13604;52.496;13.456;2024-03-02T13:05:02;100259.13;;;18.64;46.49
25759;BME280;13604;52.496;13.456;2024-03-02T13:07:28;100245.06;;;18.69;46.00
25759;BME280;13604;52.496;13.456;2024-03-02T13:09:55;100262.53;;;18.43;46.21
25759;BME280;13604;52.496;13.456;2024-03-02T13:12:22;100262.63;;;18.63;46.14
25759;BME280;13604;52.496;13.456;2024-03-02T13:14:50;100265.31;;;18.76;46.53